Time;durP1;ratioP1;P1;durP2;ratioP2;P2;SDS_P1;SDS_P2;PMS_P1;PMS_P2;Temp;Humidity;BMP_temperature;BMP_pressure;BME280_temperature;BME280_humidity;BME280_pressure;Samples;Min_cycle;Max_cycle;Signal;HPM_P1;HPM_P2
2023/02/26 00:02:24;;;;;;;5.82;3.13;;;;;;;;;;5065721;28;20028;-61
2023/02/26 00:04:50;;;;;;;7.07;2.97;;;;;;;;;;5066882;28;20040;-61
2023/02/26 00:07:15;;;;;;;5.60;2.80;;;;;;;;;;5065405;28;20026;-61
2023/02/26 00:09:40;;;;;;;5.38;2.70;;;;;;;;;;5066664;28;20020;-59
2023/02/26 00:12:08;;;;;;;5.30;3.08;;;;;;;;;;5067014;28;20029;-60
2023/02/26 00:14:34;;;;;;;4.50;2.60;;;;;;;;;;5065562;28;20020;-61
2023/02/26 00:17:05;;;;;;;2.83;2.40;;;;;;;;;;5062760;28;20016;-61
2023/02/26 00:19:31;;;;;;;4.80;2.40;;;;;;;;;;5066171;28;20241;-61
2023/02/26 00:21:56;;;;;;;7.25;2.35;;;;;;;;;;5066355;28;20024;-61
2023/02/26 00:24:22;;;;;;;2.97;2.17;;;;;;;;;;5065035;28;20066;-60
2023/02/26 00:26:47;;;;;;;2.63;2.17;;;;;;;;;;5066050;28;20105;-61
2023/02/26 00:29:13;;;;;;;3.10;2.33;;;;;;;;;;5049148;28;20032;-61
2023/02/26 00:31:38;;;;;;;6.60;2.60;;;;;;;;;;5063024;28;20218;-61
2023/02/26 00:34:04;;;;;;;4.00;2.50;;;;;;;;;;5065248;28;20056;-61
2023/02/26 00:37:05;;;;;;;5.45;2.80;;;;;;;;;;5067121;28;20063;-61
2023/02/26 00:39:40;;;;;;;4.32;2.30;;;;;;;;;;5064906;28;20474;-61
2023/02/26 00:42:06;;;;;;;3.17;2.53;;;;;;;;;;5066413;28;20016;-61
2023/02/26 00:44:32;;;;;;;5.30;2.50;;;;;;;;;;5078092;28;20024;-61
2023/02/26 00:47:08;;;;;;;5.85;2.40;;;;;;;;;;5065866;28;20111;-61
2023/02/26 00:50:09;;;;;;;4.97;2.67;;;;;;;;;;5049362;28;20016;-61
2023/02/26 00:52:46;;;;;;;6.35;2.50;;;;;;;;;;4982311;28;20045;-61
2023/02/26 00:55:11;;;;;;;2.58;2.00;;;;;;;;;;5037030;28;20123;-61
2023/02/26 00:57:36;;;;;;;2.90;2.25;;;;;;;;;;5069866;28;20119;-61
2023/02/26 01:00:06;;;;;;;3.80;2.20;;;;;;;;;;5051524;28;20023;-61
2023/02/26 01:02:33;;;;;;;3.20;2.08;;;;;;;;;;5069526;28;20028;-61
2023/02/26 01:04:59;;;;;;;4.07;2.08;;;;;;;;;;5038735;28;20028;-59
2023/02/26 01:07:27;;;;;;;5.07;2.38;;;;;;;;;;5070373;28;20039;-59
2023/02/26 01:09:53;;;;;;;5.47;2.30;;;;;;;;;;5070820;28;20082;-58
2023/02/26 01:12:18;;;;;;;3.15;2.25;;;;;;;;;;5069582;28;20024;-58
2023/02/26 01:14:46;;;;;;;6.45;2.15;;;;;;;;;;5070109;28;20028;-58
2023/02/26 01:17:20;;;;;;;4.75;2.28;;;;;;;;;;5070930;28;20020;-58
2023/02/26 01:20:00;;;;;;;3.25;2.08;;;;;;;;;;5069720;28;20094;-58
2023/02/26 01:22:33;;;;;;;5.43;2.55;;;;;;;;;;5071660;28;20012;-57
2023/02/26 01:25:04;;;;;;;3.60;2.80;;;;;;;;;;5071985;28;20024;-58
2023/02/26 01:27:30;;;;;;;2.95;2.60;;;;;;;;;;5070201;28;20521;-57
2023/02/26 01:29:55;;;;;;;3.53;2.30;;;;;;;;;;5070204;28;20036;-59
2023/02/26 01:32:36;;;;;;;5.75;2.40;;;;;;;;;;5071932;28;20032;-59
2023/02/26 01:35:12;;;;;;;4.68;2.45;;;;;;;;;;5054216;28;20062;-58
2023/02/26 01:37:51;;;;;;;3.25;2.28;;;;;;;;;;5062571;28;20031;-58
2023/02/26 01:40:20;;;;;;;4.45;2.33;;;;;;;;;;5071299;28;20028;-58
2023/02/26 01:42:51;;;;;;;5.63;2.50;;;;;;;;;;5070760;28;20039;-58
2023/02/26 01:45:24;;;;;;;5.40;2.83;;;;;;;;;;5068128;28;20028;-58
2023/02/26 01:48:14;;;;;;;2.95;2.10;;;;;;;;;;5067185;28;20427;-58
2023/02/26 01:50:39;;;;;;;4.38;2.00;;;;;;;;;;5068833;28;20513;-58
2023/02/26 01:53:16;;;;;;;2.83;1.98;;;;;;;;;;5069269;28;20036;-58
2023/02/26 01:55:44;;;;;;;3.80;2.30;;;;;;;;;;5071606;28;20032;-58
2023/02/26 01:58:11;;;;;;;2.58;2.10;;;;;;;;;;5069169;28;20024;-58
2023/02/26 02:00:36;;;;;;;2.78;2.25;;;;;;;;;;5071053;28;20031;-58
2023/02/26 02:03:02;;;;;;;3.58;2.65;;;;;;;;;;5069386;28;20025;-57
2023/02/26 02:05:37;;;;;;;6.95;2.50;;;;;;;;;;5069777;28;20028;-58
2023/02/26 02:08:03;;;;;;;4.55;2.40;;;;;;;;;;5067746;28;20067;-60
2023/02/26 02:10:29;;;;;;;4.40;2.17;;;;;;;;;;5035134;28;20040;-61
2023/02/26 02:13:19;;;;;;;4.47;2.50;;;;;;;;;;5070116;28;20032;-60
2023/02/26 02:16:05;;;;;;;3.15;2.17;;;;;;;;;;5064874;28;20108;-60
2023/02/26 02:18:52;;;;;;;4.72;2.20;;;;;;;;;;5065784;28;20036;-60
2023/02/26 02:21:39;;;;;;;4.03;2.13;;;;;;;;;;5068341;28;20420;-60
2023/02/26 02:24:13;;;;;;;3.55;2.25;;;;;;;;;;5070942;28;20033;-60
2023/02/26 02:27:00;;;;;;;3.70;2.25;;;;;;;;;;5067921;28;20426;-60
2023/02/26 02:29:43;;;;;;;3.55;2.17;;;;;;;;;;5069434;28;20020;-60
2023/02/26 02:32:13;;;;;;;3.38;2.20;;;;;;;;;;5068403;28;20060;-60
2023/02/26 02:34:45;;;;;;;2.25;2.05;;;;;;;;;;5070587;28;20317;-60
2023/02/26 02:37:16;;;;;;;3.10;2.10;;;;;;;;;;5068493;28;20029;-60
2023/02/26 02:39:48;;;;;;;2.88;1.95;;;;;;;;;;5077929;28;20104;-60
2023/02/26 02:42:24;;;;;;;5.13;2.47;;;;;;;;;;5068352;28;20390;-61
2023/02/26 02:44:58;;;;;;;7.45;2.05;;;;;;;;;;5070820;28;20063;-60
2023/02/26 02:47:26;;;;;;;2.25;1.83;;;;;;;;;;5068720;28;20524;-61
2023/02/26 02:50:35;;;;;;;4.28;2.30;;;;;;;;;;5069689;28;20059;-61
2023/02/26 02:53:12;;;;;;;5.40;2.50;;;;;;;;;;5011116;28;20053;-61
2023/02/26 02:55:45;;;;;;;3.28;2.20;;;;;;;;;;5012241;28;20116;-61
2023/02/26 02:58:16;;;;;;;5.13;2.13;;;;;;;;;;5052554;28;20028;-60
2023/02/26 03:00:47;;;;;;;4.68;1.88;;;;;;;;;;5048416;28;20021;-60
2023/02/26 03:03:21;;;;;;;3.33;2.10;;;;;;;;;;5068066;28;20036;-61
2023/02/26 03:05:47;;;;;;;6.03;2.55;;;;;;;;;;5066558;28;20029;-60
2023/02/26 03:08:22;;;;;;;4.93;2.35;;;;;;;;;;5067754;28;20432;-61
2023/02/26 03:10:48;;;;;;;5.68;2.22;;;;;;;;;;5069895;28;20469;-61
2023/02/26 03:13:16;;;;;;;4.32;2.30;;;;;;;;;;5068784;28;20025;-61
2023/02/26 03:15:46;;;;;;;8.50;2.10;;;;;;;;;;5069856;28;20032;-61
2023/02/26 03:18:45;;;;;;;6.60;2.60;;;;;;;;;;5068754;28;20021;-61
2023/02/26 03:21:35;;;;;;;5.82;1.80;;;;;;;;;;5066918;28;20078;-61
2023/02/26 03:24:12;;;;;;;4.57;2.65;;;;;;;;;;5065381;28;20424;-61
2023/02/26 03:26:58;;;;;;;2.80;2.10;;;;;;;;;;5069245;28;20104;-61
2023/02/26 03:29:23;;;;;;;3.60;2.42;;;;;;;;;;5050899;28;20065;-61
2023/02/26 03:31:54;;;;;;;5.50;2.97;;;;;;;;;;5068964;28;20024;-61
2023/02/26 03:34:22;;;;;;;3.47;2.70;;;;;;;;;;5069324;28;20029;-61
2023/02/26 03:36:56;;;;;;;20.00;7.95;;;;;;;;;;5068917;28;20028;-61
2023/02/26 03:39:38;;;;;;;12.50;5.90;;;;;;;;;;5066804;28;20028;-61
2023/02/26 03:42:17;;;;;;;8.02;3.63;;;;;;;;;;5052486;28;20028;-61
2023/02/26 03:44:51;;;;;;;4.72;3.05;;;;;;;;;;5068062;28;20056;-61
2023/02/26 03:47:17;;;;;;;4.72;2.55;;;;;;;;;;5066575;28;20479;-61
2023/02/26 03:49:52;;;;;;;7.75;3.25;;;;;;;;;;5067647;28;20031;-61
2023/02/26 03:52:21;;;;;;;6.47;2.90;;;;;;;;;;5069619;28;20076;-61
2023/02/26 03:55:00;;;;;;;7.20;3.10;;;;;;;;;;5067384;28;20035;-60
2023/02/26 03:57:26;;;;;;;3.53;2.67;;;;;;;;;;5068311;28;20465;-61
2023/02/26 03:59:53;;;;;;;5.35;2.65;;;;;;;;;;5048287;28;20063;-61
2023/02/26 04:02:25;;;;;;;6.82;3.00;;;;;;;;;;5050624;28;20363;-61
2023/02/26 04:04:54;;;;;;;5.28;2.58;;;;;;;;;;5066553;28;20294;-61
2023/02/26 04:07:21;;;;;;;4.60;2.60;;;;;;;;;;5066729;28;20542;-61
2023/02/26 04:09:48;;;;;;;3.20;2.65;;;;;;;;;;5069018;28;20178;-61
2023/02/26 04:12:14;;;;;;;3.60;2.58;;;;;;;;;;5069216;28;20037;-61
2023/02/26 04:14:40;;;;;;;4.18;2.80;;;;;;;;;;5066891;28;20446;-61
2023/02/26 04:17:05;;;;;;;5.65;2.70;;;;;;;;;;5051283;28;20028;-61
2023/02/26 04:19:31;;;;;;;4.20;2.45;;;;;;;;;;5064596;28;20380;-61
2023/02/26 04:21:56;;;;;;;5.00;2.90;;;;;;;;;;5050407;28;20030;-60
2023/02/26 04:24:22;;;;;;;4.78;2.50;;;;;;;;;;5066531;28;20037;-61
2023/02/26 04:26:47;;;;;;;5.05;2.63;;;;;;;;;;5073498;28;20060;-61
2023/02/26 04:29:13;;;;;;;4.93;3.00;;;;;;;;;;5067917;28;20063;-60
2023/02/26 04:31:38;;;;;;;5.38;2.63;;;;;;;;;;5067944;28;20024;-61
2023/02/26 04:34:04;;;;;;;3.83;2.55;;;;;;;;;;5066696;28;20131;-60
2023/02/26 04:36:29;;;;;;;3.58;2.00;;;;;;;;;;5066305;28;20039;-60
2023/02/26 04:38:55;;;;;;;3.38;2.45;;;;;;;;;;5068223;28;20440;-60
2023/02/26 04:41:20;;;;;;;4.50;2.30;;;;;;;;;;5067271;28;20516;-60
2023/02/26 04:43:46;;;;;;;4.43;2.70;;;;;;;;;;5067192;28;20093;-60
2023/02/26 04:46:11;;;;;;;4.25;2.55;;;;;;;;;;5067462;28;20428;-61
2023/02/26 04:48:37;;;;;;;4.25;2.20;;;;;;;;;;5066829;28;20470;-60
2023/02/26 04:51:02;;;;;;;3.97;2.60;;;;;;;;;;5068095;28;20024;-61
2023/02/26 04:53:28;;;;;;;5.15;2.30;;;;;;;;;;5047436;28;20017;-60
2023/02/26 04:55:53;;;;;;;6.57;2.28;;;;;;;;;;5065983;28;20035;-60
2023/02/26 04:58:19;;;;;;;5.70;2.40;;;;;;;;;;5066527;28;20024;-60
2023/02/26 05:00:48;;;;;;;6.88;3.00;;;;;;;;;;5068241;28;20044;-60
2023/02/26 05:03:14;;;;;;;6.28;2.47;;;;;;;;;;5067798;28;20108;-61
2023/02/26 05:05:39;;;;;;;7.95;2.20;;;;;;;;;;5067375;28;20107;-61
2023/02/26 05:08:05;;;;;;;6.68;2.40;;;;;;;;;;5067761;28;20089;-60
2023/02/26 05:10:30;;;;;;;5.55;2.42;;;;;;;;;;5067994;28;20100;-60
2023/02/26 05:12:56;;;;;;;6.63;2.33;;;;;;;;;;5066369;28;20027;-60
2023/02/26 05:15:21;;;;;;;6.85;2.60;;;;;;;;;;5066050;28;20036;-60
2023/02/26 05:17:47;;;;;;;7.78;3.70;;;;;;;;;;5066487;28;20029;-61
2023/02/26 05:20:14;;;;;;;6.10;3.53;;;;;;;;;;5067995;28;20013;-61
2023/02/26 05:22:40;;;;;;;5.57;3.17;;;;;;;;;;5066697;28;20016;-61
2023/02/26 05:25:06;;;;;;;6.40;3.35;;;;;;;;;;5067043;28;20035;-61
2023/02/26 05:27:32;;;;;;;7.63;2.80;;;;;;;;;;5066482;28;20016;-61
2023/02/26 05:29:58;;;;;;;4.65;2.40;;;;;;;;;;5050213;28;20070;-61
2023/02/26 05:32:23;;;;;;;3.70;2.42;;;;;;;;;;5063613;28;20020;-61
2023/02/26 05:34:49;;;;;;;6.38;2.40;;;;;;;;;;5044186;28;20549;-60
2023/02/26 05:37:14;;;;;;;5.70;2.60;;;;;;;;;;5063798;28;20047;-60
2023/02/26 05:39:42;;;;;;;4.85;2.78;;;;;;;;;;5066544;28;20032;-61
2023/02/26 05:42:08;;;;;;;4.15;2.95;;;;;;;;;;5052793;28;20017;-60
2023/02/26 05:44:34;;;;;;;7.55;3.10;;;;;;;;;;5070631;28;20025;-60
2023/02/26 05:47:00;;;;;;;7.00;2.95;;;;;;;;;;5070264;28;20026;-60
2023/02/26 05:49:26;;;;;;;7.38;3.13;;;;;;;;;;5070046;28;20074;-60
2023/02/26 05:51:51;;;;;;;8.55;3.60;;;;;;;;;;5071237;28;20032;-61
2023/02/26 05:54:17;;;;;;;6.47;3.22;;;;;;;;;;5053880;28;20071;-60
2023/02/26 05:56:42;;;;;;;6.55;3.30;;;;;;;;;;5050071;28;20021;-60
2023/02/26 05:59:08;;;;;;;8.27;3.72;;;;;;;;;;5069652;28;20040;-61
2023/02/26 06:01:36;;;;;;;7.43;3.80;;;;;;;;;;5068893;28;20040;-61
2023/02/26 06:04:01;;;;;;;10.43;4.32;;;;;;;;;;5073753;28;20028;-61
2023/02/26 06:06:26;;;;;;;9.93;3.90;;;;;;;;;;5051958;28;20382;-60
2023/02/26 06:08:52;;;;;;;8.88;4.13;;;;;;;;;;5069497;28;20099;-61
2023/02/26 06:11:17;;;;;;;6.68;3.85;;;;;;;;;;5071345;28;20032;-61
2023/02/26 06:13:43;;;;;;;8.32;3.95;;;;;;;;;;5070021;28;20020;-61
2023/02/26 06:16:08;;;;;;;13.70;5.47;;;;;;;;;;5070172;28;20052;-60
2023/02/26 06:18:33;;;;;;;13.57;6.57;;;;;;;;;;5067962;28;20045;-60
2023/02/26 06:21:00;;;;;;;14.50;6.40;;;;;;;;;;5071274;28;20027;-60
2023/02/26 06:23:25;;;;;;;6.28;4.28;;;;;;;;;;5068839;28;20016;-60
2023/02/26 06:25:52;;;;;;;11.40;5.35;;;;;;;;;;5070699;28;20024;-61
2023/02/26 06:28:18;;;;;;;15.10;6.35;;;;;;;;;;5068981;28;20042;-60
2023/02/26 06:30:45;;;;;;;13.93;7.05;;;;;;;;;;5068934;28;20024;-60
2023/02/26 06:33:11;;;;;;;12.80;6.13;;;;;;;;;;5070258;28;20094;-60
2023/02/26 06:35:37;;;;;;;13.43;7.13;;;;;;;;;;5069511;28;20028;-60
2023/02/26 06:38:03;;;;;;;11.88;7.15;;;;;;;;;;5068014;28;20108;-60
2023/02/26 06:40:29;;;;;;;9.30;5.10;;;;;;;;;;5062539;28;20055;-61
2023/02/26 06:42:55;;;;;;;11.00;5.55;;;;;;;;;;5069669;28;20059;-62
2023/02/26 06:45:21;;;;;;;20.55;6.90;;;;;;;;;;5051988;28;20060;-60
2023/02/26 06:47:47;;;;;;;13.15;6.32;;;;;;;;;;5067506;28;20458;-61
2023/02/26 06:50:12;;;;;;;13.98;6.68;;;;;;;;;;5067665;28;20036;-61
2023/02/26 06:52:38;;;;;;;18.35;8.50;;;;;;;;;;5070074;28;20016;-61
2023/02/26 06:55:04;;;;;;;9.48;5.47;;;;;;;;;;5051724;28;20028;-60
2023/02/26 06:57:29;;;;;;;11.93;5.85;;;;;;;;;;5069873;28;20119;-61
2023/02/26 06:59:55;;;;;;;11.88;5.22;;;;;;;;;;5067533;28;20035;-61
2023/02/26 07:02:21;;;;;;;9.73;3.83;;;;;;;;;;5069915;28;20028;-61
2023/02/26 07:04:47;;;;;;;7.07;4.05;;;;;;;;;;5070517;28;20036;-61
2023/02/26 07:07:14;;;;;;;8.68;4.57;;;;;;;;;;5067924;28;20027;-61
2023/02/26 07:09:40;;;;;;;9.82;4.95;;;;;;;;;;5068144;28;20112;-61
2023/02/26 07:12:06;;;;;;;11.90;4.72;;;;;;;;;;5068912;28;20124;-60
2023/02/26 07:14:33;;;;;;;14.50;4.28;;;;;;;;;;5068945;28;20103;-60
2023/02/26 07:16:58;;;;;;;11.45;4.80;;;;;;;;;;5068651;28;20528;-61
2023/02/26 07:19:24;;;;;;;10.48;5.13;;;;;;;;;;5067955;28;20119;-61
2023/02/26 07:21:49;;;;;;;12.30;5.30;;;;;;;;;;5068421;28;20056;-61
2023/02/26 07:24:15;;;;;;;15.05;5.78;;;;;;;;;;5069560;28;20385;-60
2023/02/26 07:26:40;;;;;;;8.63;4.85;;;;;;;;;;5067698;28;20024;-61
2023/02/26 07:29:06;;;;;;;8.80;4.75;;;;;;;;;;5069086;28;20105;-61
2023/02/26 07:31:32;;;;;;;8.80;5.03;;;;;;;;;;5068852;28;20028;-61
2023/02/26 07:33:57;;;;;;;13.23;5.18;;;;;;;;;;5070024;28;20024;-61
2023/02/26 07:36:22;;;;;;;14.88;5.18;;;;;;;;;;5068085;28;20163;-60
2023/02/26 07:38:48;;;;;;;12.10;6.03;;;;;;;;;;5068960;28;20029;-61
2023/02/26 07:41:13;;;;;;;13.20;5.70;;;;;;;;;;5068645;28;20032;-61
2023/02/26 07:43:39;;;;;;;12.07;6.00;;;;;;;;;;5068813;28;20016;-61
2023/02/26 07:46:04;;;;;;;15.43;6.95;;;;;;;;;;5069040;28;20020;-60
2023/02/26 07:48:30;;;;;;;17.17;7.45;;;;;;;;;;5068129;28;20066;-60
2023/02/26 07:50:56;;;;;;;14.98;7.75;;;;;;;;;;5068156;28;20464;-61
2023/02/26 07:53:21;;;;;;;16.67;6.90;;;;;;;;;;5068089;28;20039;-61
2023/02/26 07:55:47;;;;;;;19.55;7.90;;;;;;;;;;5067988;28;20032;-61
2023/02/26 07:58:12;;;;;;;20.83;9.10;;;;;;;;;;5067256;28;20032;-60
2023/02/26 08:00:38;;;;;;;18.00;7.68;;;;;;;;;;5067244;28;20043;-60
2023/02/26 08:03:03;;;;;;;34.35;11.05;;;;;;;;;;5068147;28;20492;-60
2023/02/26 08:05:29;;;;;;;29.50;9.57;;;;;;;;;;5067218;28;20024;-60
2023/02/26 08:07:54;;;;;;;22.42;9.07;;;;;;;;;;5071681;28;20051;-60
2023/02/26 08:10:20;;;;;;;33.90;11.43;;;;;;;;;;5066381;28;20025;-60
2023/02/26 08:12:45;;;;;;;45.72;13.73;;;;;;;;;;5066681;28;20036;-60
2023/02/26 08:15:14;;;;;;;37.10;12.02;;;;;;;;;;5066558;28;20119;-61
2023/02/26 08:17:40;;;;;;;23.02;8.70;;;;;;;;;;5066553;28;20021;-61
2023/02/26 08:20:07;;;;;;;14.23;7.20;;;;;;;;;;5067118;28;20024;-60
2023/02/26 08:22:33;;;;;;;19.42;7.38;;;;;;;;;;5066599;28;20021;-60
2023/02/26 08:24:59;;;;;;;20.20;7.35;;;;;;;;;;5067433;28;20378;-61
2023/02/26 08:27:24;;;;;;;19.00;8.40;;;;;;;;;;5068756;28;20029;-61
2023/02/26 08:29:50;;;;;;;26.92;12.10;;;;;;;;;;5051152;28;20039;-61
2023/02/26 08:32:18;;;;;;;20.60;7.72;;;;;;;;;;5067195;28;20029;-60
2023/02/26 08:34:43;;;;;;;27.42;7.70;;;;;;;;;;5066435;28;20107;-60
2023/02/26 08:37:10;;;;;;;26.45;8.07;;;;;;;;;;5066747;28;20111;-60
2023/02/26 08:39:37;;;;;;;17.20;8.10;;;;;;;;;;5067589;28;20476;-61
2023/02/26 08:42:05;;;;;;;21.13;8.43;;;;;;;;;;5071909;28;20486;-59
2023/02/26 08:44:31;;;;;;;16.23;7.18;;;;;;;;;;5065101;28;20021;-61
2023/02/26 08:46:56;;;;;;;19.75;6.60;;;;;;;;;;5067921;28;20393;-60
2023/02/26 08:49:21;;;;;;;16.02;7.53;;;;;;;;;;5067361;28;20031;-61
2023/02/26 08:51:47;;;;;;;13.65;6.95;;;;;;;;;;5050548;28;20067;-61
2023/02/26 08:54:13;;;;;;;19.08;7.13;;;;;;;;;;5067113;28;20028;-61
2023/02/26 08:56:38;;;;;;;24.35;8.95;;;;;;;;;;5068097;28;20064;-61
2023/02/26 08:59:04;;;;;;;15.15;7.25;;;;;;;;;;5049861;28;20032;-60
2023/02/26 09:01:29;;;;;;;17.85;5.95;;;;;;;;;;5067762;28;20373;-61
2023/02/26 09:03:55;;;;;;;12.65;5.90;;;;;;;;;;5067574;28;20032;-61
2023/02/26 09:06:20;;;;;;;14.98;5.95;;;;;;;;;;5068286;28;20474;-59
2023/02/26 09:08:46;;;;;;;15.73;6.30;;;;;;;;;;5065886;28;20024;-60
2023/02/26 09:11:12;;;;;;;14.13;6.82;;;;;;;;;;5065425;28;20032;-60
2023/02/26 09:13:37;;;;;;;17.23;7.03;;;;;;;;;;5050422;28;20024;-62
2023/02/26 09:16:03;;;;;;;15.68;6.35;;;;;;;;;;5063686;28;20031;-59
2023/02/26 09:18:29;;;;;;;10.32;5.57;;;;;;;;;;5069696;28;20050;-60
2023/02/26 09:20:55;;;;;;;15.73;6.60;;;;;;;;;;5070114;28;20035;-61
2023/02/26 09:23:20;;;;;;;19.80;7.07;;;;;;;;;;5071206;28;20016;-60
2023/02/26 09:25:51;;;;;;;18.77;7.22;;;;;;;;;;5055005;28;20127;-61
2023/02/26 09:28:17;;;;;;;20.58;7.72;;;;;;;;;;5070359;28;20028;-61
2023/02/26 09:30:42;;;;;;;18.15;7.30;;;;;;;;;;5069562;28;20030;-61
2023/02/26 09:33:08;;;;;;;16.42;6.20;;;;;;;;;;5071662;28;20405;-62
2023/02/26 09:35:34;;;;;;;13.07;6.03;;;;;;;;;;5069561;28;20024;-61
2023/02/26 09:38:00;;;;;;;15.13;6.63;;;;;;;;;;5071112;28;20024;-61
2023/02/26 09:40:44;;;;;;;12.18;5.93;;;;;;;;;;5070287;28;20023;-61
2023/02/26 09:43:46;;;;;;;14.20;5.72;;;;;;;;;;5067874;28;20090;-60
2023/02/26 09:46:41;;;;;;;15.95;6.45;;;;;;;;;;5072661;28;20093;-62
2023/02/26 09:49:18;;;;;;;16.48;7.60;;;;;;;;;;5053479;28;20029;-62
2023/02/26 09:51:46;;;;;;;14.18;5.57;;;;;;;;;;5071792;28;20488;-60
2023/02/26 09:54:20;;;;;;;17.50;6.88;;;;;;;;;;5054878;28;20047;-61
2023/02/26 09:56:47;;;;;;;25.23;8.43;;;;;;;;;;5068236;28;20393;-61
2023/02/26 09:59:13;;;;;;;24.60;8.30;;;;;;;;;;5069137;28;20101;-61
2023/02/26 10:02:04;;;;;;;23.17;8.15;;;;;;;;;;5070873;28;20103;-62
2023/02/26 10:04:49;;;;;;;31.63;11.05;;;;;;;;;;5067841;28;20350;-62
2023/02/26 10:07:44;;;;;;;44.97;12.38;;;;;;;;;;5070715;28;20047;-61
2023/02/26 10:10:26;;;;;;;24.23;10.20;;;;;;;;;;5069791;28;20029;-62
2023/02/26 10:12:52;;;;;;;24.58;8.15;;;;;;;;;;5068970;28;20360;-62
2023/02/26 10:15:23;;;;;;;22.08;8.75;;;;;;;;;;5069525;28;20528;-62
2023/02/26 10:18:00;;;;;;;13.35;6.25;;;;;;;;;;5070439;28;20040;-61
2023/02/26 10:20:48;;;;;;;11.93;5.60;;;;;;;;;;5069837;28;20212;-61
2023/02/26 10:23:14;;;;;;;15.93;5.50;;;;;;;;;;5070764;28;20032;-60
2023/02/26 10:26:18;;;;;;;11.02;5.65;;;;;;;;;;5071338;28;20024;-60
2023/02/26 10:28:55;;;;;;;12.50;5.88;;;;;;;;;;5046208;28;20062;-59
2023/02/26 10:31:51;;;;;;;12.15;6.57;;;;;;;;;;5068704;28;20032;-60
2023/02/26 10:34:42;;;;;;;19.83;8.10;;;;;;;;;;5067354;28;20103;-60
2023/02/26 10:37:22;;;;;;;11.95;6.70;;;;;;;;;;5069234;28;20028;-59
2023/02/26 10:40:00;;;;;;;13.02;5.90;;;;;;;;;;5065955;28;20032;-59
2023/02/26 10:42:42;;;;;;;11.85;5.25;;;;;;;;;;5053994;28;20020;-60
2023/02/26 10:45:41;;;;;;;11.90;5.18;;;;;;;;;;5069520;28;20020;-58
2023/02/26 10:48:37;;;;;;;9.77;6.35;;;;;;;;;;5045656;28;20036;-59
2023/02/26 10:51:27;;;;;;;13.18;6.03;;;;;;;;;;5064777;28;20490;-59
2023/02/26 10:54:13;;;;;;;13.27;5.18;;;;;;;;;;5068005;28;20390;-59
2023/02/26 10:56:39;;;;;;;12.73;5.80;;;;;;;;;;5067628;28;20033;-60
2023/02/26 10:59:04;;;;;;;12.20;6.63;;;;;;;;;;5051213;28;20031;-59
2023/02/26 11:01:30;;;;;;;14.57;5.97;;;;;;;;;;5069063;28;20016;-58
2023/02/26 11:04:00;;;;;;;11.40;4.68;;;;;;;;;;5069166;28;20031;-58
2023/02/26 11:06:33;;;;;;;6.93;4.40;;;;;;;;;;5051378;28;20024;-56
2023/02/26 11:09:00;;;;;;;9.93;5.85;;;;;;;;;;5069736;28;20024;-60
2023/02/26 11:11:50;;;;;;;9.05;4.68;;;;;;;;;;5072265;28;20032;-59
2023/02/26 11:14:15;;;;;;;;;;;;;;;;;;5068678;28;20154;-59
2023/02/26 11:16:47;;;;;;;7.97;4.43;;;;;;;;;;5068079;28;20066;-59
2023/02/26 11:19:15;;;;;;;12.48;5.05;;;;;;;;;;5072042;28;20025;-59
2023/02/26 11:21:43;;;;;;;21.23;7.40;;;;;;;;;;5068655;28;20055;-59
2023/02/26 11:24:48;;;;;;;16.20;5.72;;;;;;;;;;5068626;28;20469;-60
2023/02/26 11:27:24;;;;;;;12.10;5.20;;;;;;;;;;5058673;28;20066;-60
2023/02/26 11:29:56;;;;;;;11.80;4.45;;;;;;;;;;5068966;28;20389;-59
2023/02/26 11:32:28;;;;;;;11.65;4.88;;;;;;;;;;5067079;28;20020;-60
2023/02/26 11:34:54;;;;;;;9.13;4.88;;;;;;;;;;5069323;28;20064;-59
2023/02/26 11:37:23;;;;;;;7.80;4.82;;;;;;;;;;5067911;28;20138;-60
2023/02/26 11:40:02;;;;;;;16.48;7.32;;;;;;;;;;5067850;28;20032;-60
2023/02/26 11:42:28;;;;;;;15.35;7.78;;;;;;;;;;5067993;28;20095;-60
2023/02/26 11:44:56;;;;;;;12.20;5.80;;;;;;;;;;5067258;28;20174;-60
2023/02/26 11:47:28;;;;;;;11.50;6.35;;;;;;;;;;5051822;28;20419;-60
2023/02/26 11:49:59;;;;;;;6.78;4.40;;;;;;;;;;5066973;28;20032;-60
2023/02/26 11:52:29;;;;;;;10.20;4.88;;;;;;;;;;5069289;28;20732;-59
2023/02/26 11:54:59;;;;;;;;;;;;;;;;;;5068528;28;20044;-59
2023/02/26 11:57:28;;;;;;;7.30;4.63;;;;;;;;;;5067902;28;19954;-60
2023/02/26 11:59:56;;;;;;;8.48;4.50;;;;;;;;;;5066275;28;20142;-60
2023/02/26 12:02:23;;;;;;;10.68;5.13;;;;;;;;;;5050175;28;20016;-60
2023/02/26 12:04:51;;;;;;;7.60;4.65;;;;;;;;;;5068722;28;20274;-61
2023/02/26 12:07:18;;;;;;;10.65;6.13;;;;;;;;;;5066816;28;20519;-60
2023/02/26 12:09:45;;;;;;;10.73;5.97;;;;;;;;;;5068906;28;20074;-60
2023/02/26 12:12:37;;;;;;;12.18;5.90;;;;;;;;;;5069302;28;20494;-60
2023/02/26 12:15:41;;;;;;;9.25;4.50;;;;;;;;;;5065495;28;20034;-60
2023/02/26 12:18:19;;;;;;;11.30;5.68;;;;;;;;;;5068184;28;20053;-60
2023/02/26 12:20:51;;;;;;;9.40;5.30;;;;;;;;;;5067022;28;20047;-61
2023/02/26 12:23:52;;;;;;;10.55;4.47;;;;;;;;;;5068771;28;20016;-60
2023/02/26 12:26:34;;;;;;;10.55;5.50;;;;;;;;;;5065604;28;20115;-60
2023/02/26 12:29:26;;;;;;;6.45;4.72;;;;;;;;;;5065421;28;20026;-61
2023/02/26 12:32:26;;;;;;;8.15;4.88;;;;;;;;;;5072068;28;20047;-60
2023/02/26 12:34:54;;;;;;;9.90;5.13;;;;;;;;;;5064065;28;20133;-60
2023/02/26 12:37:45;;;;;;;11.48;5.22;;;;;;;;;;5068446;28;20028;-60
2023/02/26 12:40:41;;;;;;;9.27;4.82;;;;;;;;;;5067479;28;20024;-60
2023/02/26 12:43:15;;;;;;;11.52;5.25;;;;;;;;;;5067917;28;20024;-60
2023/02/26 12:46:26;;;;;;;7.93;4.57;;;;;;;;;;5067530;28;20032;-60
2023/02/26 12:49:21;;;;;;;22.10;7.30;;;;;;;;;;4995008;28;20081;-60
2023/02/26 12:52:07;;;;;;;22.60;8.32;;;;;;;;;;5025837;28;20491;-60
2023/02/26 12:54:37;;;;;;;14.25;5.90;;;;;;;;;;5071025;28;20029;-59
2023/02/26 12:57:28;;;;;;;15.68;6.35;;;;;;;;;;5069821;28;20044;-61
2023/02/26 13:00:30;;;;;;;18.92;6.75;;;;;;;;;;5056091;28;20064;-59
2023/02/26 13:03:12;;;;;;;13.63;6.32;;;;;;;;;;5067404;28;20378;-59
2023/02/26 13:06:04;;;;;;;21.42;7.93;;;;;;;;;;5072348;28;20033;-59
2023/02/26 13:08:48;;;;;;;11.68;6.00;;;;;;;;;;5070427;28;20554;-60
2023/02/26 13:11:48;;;;;;;17.52;7.03;;;;;;;;;;5070212;28;20435;-59
2023/02/26 13:14:38;;;;;;;10.48;5.50;;;;;;;;;;5071473;28;20033;-59
2023/02/26 13:17:25;;;;;;;18.15;6.70;;;;;;;;;;5071738;28;20085;-59
2023/02/26 13:19:58;;;;;;;14.20;5.55;;;;;;;;;;5067141;28;20021;-58
2023/02/26 13:22:38;;;;;;;19.58;6.22;;;;;;;;;;5072687;28;20110;-60
2023/02/26 13:25:17;;;;;;;29.20;7.53;;;;;;;;;;5071843;28;20032;-59
2023/02/26 13:27:45;;;;;;;16.50;5.88;;;;;;;;;;5069274;28;20086;-60
2023/02/26 13:30:26;;;;;;;35.85;9.63;;;;;;;;;;5070744;28;20036;-60
2023/02/26 13:32:56;;;;;;;28.33;7.78;;;;;;;;;;5071949;28;20119;-60
2023/02/26 13:35:41;;;;;;;23.75;6.43;;;;;;;;;;5069921;28;20496;-59
2023/02/26 13:38:48;;;;;;;30.80;8.38;;;;;;;;;;5070949;28;20032;-59
2023/02/26 13:41:16;;;;;;;10.77;4.75;;;;;;;;;;5041695;28;20067;-60
2023/02/26 13:43:52;;;;;;;18.58;6.93;;;;;;;;;;5069845;28;20502;-59
2023/02/26 13:46:41;;;;;;;19.77;8.15;;;;;;;;;;5071775;28;20030;-59
2023/02/26 13:49:13;;;;;;;12.40;5.03;;;;;;;;;;5069616;28;20474;-59
2023/02/26 13:51:46;;;;;;;9.20;4.13;;;;;;;;;;5072002;28;20029;-60
2023/02/26 13:54:15;;;;;;;9.77;4.68;;;;;;;;;;5054227;28;20028;-59
2023/02/26 13:57:04;;;;;;;5.05;3.45;;;;;;;;;;5070232;28;20063;-59
2023/02/26 13:59:44;;;;;;;8.83;4.60;;;;;;;;;;5070382;28;20078;-59
2023/02/26 14:02:19;;;;;;;5.80;3.95;;;;;;;;;;5071073;28;20337;-59
2023/02/26 14:04:58;;;;;;;4.90;3.42;;;;;;;;;;5068134;28;20032;-59
2023/02/26 14:07:54;;;;;;;7.00;3.50;;;;;;;;;;5070138;28;20032;-59
2023/02/26 14:10:42;;;;;;;6.60;3.70;;;;;;;;;;5069776;28;20048;-59
2023/02/26 14:13:11;;;;;;;2.70;2.25;;;;;;;;;;5068803;28;20035;-59
2023/02/26 14:15:52;;;;;;;8.13;3.40;;;;;;;;;;5069298;28;20026;-60
2023/02/26 14:18:35;;;;;;;7.15;3.38;;;;;;;;;;5068501;28;20103;-60
2023/02/26 14:21:26;;;;;;;5.63;3.40;;;;;;;;;;5067103;28;20454;-60
2023/02/26 14:24:12;;;;;;;4.45;2.42;;;;;;;;;;5064379;28;20029;-60
2023/02/26 14:26:42;;;;;;;9.32;3.10;;;;;;;;;;5063937;28;20027;-59
2023/02/26 14:29:16;;;;;;;5.35;2.90;;;;;;;;;;5071227;28;20355;-60
2023/02/26 14:32:12;;;;;;;7.03;3.25;;;;;;;;;;5071599;28;20016;-59
2023/02/26 14:34:54;;;;;;;4.32;2.80;;;;;;;;;;5067531;28;20103;-60
2023/02/26 14:37:24;;;;;;;4.30;2.60;;;;;;;;;;5069116;28;20024;-59
2023/02/26 14:39:58;;;;;;;3.42;2.47;;;;;;;;;;5068620;28;20077;-60
2023/02/26 14:42:48;;;;;;;3.63;2.53;;;;;;;;;;5100335;28;20052;-60
2023/02/26 14:45:38;;;;;;;5.85;3.13;;;;;;;;;;5070647;28;20024;-59
2023/02/26 14:48:16;;;;;;;4.45;2.72;;;;;;;;;;5069162;28;20024;-60
2023/02/26 14:51:00;;;;;;;10.20;3.10;;;;;;;;;;5067676;28;20021;-60
2023/02/26 14:53:49;;;;;;;4.95;2.22;;;;;;;;;;5067995;28;20028;-60
2023/02/26 14:56:24;;;;;;;4.82;2.67;;;;;;;;;;5052856;28;20025;-61
2023/02/26 14:59:38;;;;;;;5.60;2.85;;;;;;;;;;5069359;28;20521;-60
2023/02/26 15:02:04;;;;;;;3.78;3.03;;;;;;;;;;5006174;28;20076;-58
2023/02/26 15:04:38;;;;;;;7.38;3.60;;;;;;;;;;5065222;28;20033;-59
2023/02/26 15:07:20;;;;;;;8.52;4.32;;;;;;;;;;5068965;28;20032;-60
2023/02/26 15:10:04;;;;;;;12.93;5.85;;;;;;;;;;5066818;28;20024;-58
2023/02/26 15:13:04;;;;;;;8.68;4.35;;;;;;;;;;5070394;28;20028;-60